Terminal Aerodrome Forecast
Issued by NWS Omaha/Valley, NE

Home | Current Version | Previous Version | Text Only | Print | Product List | Glossary Off
Versions: 1 2 3 4 5 6 7 8 9 10 11 12 13 14 15 16 17 18 19 20 21 22 23 24 25 26 27 28 29 30 31 32 33 34 35 36 37 38 39 40

000
FTUS43 KOAX 311515 AAB
TAFOFK
TAF AMD
KOFK 311515Z 3115/0112 13010KT P6SM SCT025
      TEMPO 3115/3118 BKN025
     FM311800 13012G19KT P6SM SCT035 BKN110
     FM312200 13011KT P6SM BKN090
     FM010300 13007KT P6SM SCT040 OVC080=

USA.gov is the U.S. government's official web portal to all federal, state and local government web resources and services.